Time;durP1;ratioP1;P1;durP2;ratioP2;P2;SDS_P1;SDS_P2;PMS_P1;PMS_P2;Temp;Humidity;BMP_temperature;BMP_pressure;BME280_temperature;BME280_humidity;BME280_pressure;Samples;Min_cycle;Max_cycle;Signal;HPM_P1;HPM_P2
2023/02/10 00:01:58;;;;;;;17.70;11.43;;;1.70;99.90;;;;;;4887199;29;20578;-71
2023/02/10 00:04:23;;;;;;;15.20;9.90;;;1.70;99.90;;;;;;4887465;29;20181;-73
2023/02/10 00:06:49;;;;;;;18.30;12.13;;;1.70;99.90;;;;;;4887073;29;20289;-72
2023/02/10 00:09:15;;;;;;;15.77;9.67;;;1.80;99.90;;;;;;4882611;29;20264;-72
2023/02/10 00:11:59;;;;;;;21.83;10.80;;;1.80;99.90;;;;;;4885708;29;20208;-72
2023/02/10 00:14:26;;;;;;;13.83;10.00;;;1.70;99.90;;;;;;4882915;29;20219;-72
2023/02/10 00:16:53;;;;;;;19.00;10.40;;;1.60;99.90;;;;;;4882859;29;20489;-72
2023/02/10 00:19:20;;;;;;;15.87;9.90;;;1.60;99.90;;;;;;4889124;29;20513;-71
2023/02/10 00:21:46;;;;;;;14.27;10.43;;;1.50;99.90;;;;;;4887090;29;20464;-72
2023/02/10 00:24:12;;;;;;;17.10;10.70;;;1.40;99.90;;;;;;4889404;29;20539;-72
2023/02/10 00:26:37;;;;;;;17.20;10.80;;;1.40;99.90;;;;;;4893715;29;20200;-72
2023/02/10 00:29:03;;;;;;;14.63;9.47;;;1.40;99.90;;;;;;4887336;29;20177;-72
2023/02/10 00:31:29;;;;;;;16.43;8.07;;;1.40;99.90;;;;;;4890840;29;20528;-71
2023/02/10 00:33:55;;;;;;;15.50;9.00;;;1.40;99.90;;;;;;4887073;29;20173;-72
2023/02/10 00:36:21;;;;;;;16.23;9.20;;;1.40;99.90;;;;;;4883291;29;20201;-72
2023/02/10 00:38:47;;;;;;;13.50;8.27;;;1.30;99.90;;;;;;4886292;29;20548;-72
2023/02/10 00:41:15;;;;;;;19.03;10.63;;;1.30;99.90;;;;;;4882494;29;20421;-71
2023/02/10 00:43:42;;;;;;;15.07;10.30;;;1.40;99.90;;;;;;4889349;29;20559;-72
2023/02/10 00:46:08;;;;;;;14.10;9.10;;;1.50;99.90;;;;;;4884084;29;20410;-72
2023/02/10 00:48:34;;;;;;;21.67;9.87;;;1.60;99.90;;;;;;4884628;29;20959;-71
2023/02/10 00:51:00;;;;;;;12.30;8.97;;;1.60;99.90;;;;;;4886489;29;20426;-72
2023/02/10 00:53:26;;;;;;;13.10;9.93;;;1.60;99.90;;;;;;4882107;29;20425;-72
2023/02/10 00:55:52;;;;;;;16.47;10.43;;;1.70;99.90;;;;;;4885445;29;20305;-72
2023/02/10 00:58:17;;;;;;;15.10;11.57;;;1.70;99.90;;;;;;4882134;29;20520;-72
2023/02/10 01:00:43;;;;;;;14.93;10.00;;;1.70;99.90;;;;;;4890969;29;20184;-72
2023/02/10 01:03:09;;;;;;;14.23;9.67;;;1.70;99.90;;;;;;4890514;29;20212;-73
2023/02/10 01:05:35;;;;;;;15.83;9.80;;;1.70;99.90;;;;;;4884161;29;20541;-71
2023/02/10 01:08:01;;;;;;;18.20;10.83;;;1.70;99.90;;;;;;4892022;29;20212;-71
2023/02/10 01:10:27;;;;;;;19.70;11.47;;;1.80;99.90;;;;;;4891911;29;21007;-72
2023/02/10 01:12:52;;;;;;;18.00;10.20;;;1.70;99.90;;;;;;4885746;29;20268;-71
2023/02/10 01:15:18;;;;;;;14.00;11.07;;;1.60;99.90;;;;;;4884915;29;20441;-71
2023/02/10 01:17:43;;;;;;;16.80;11.33;;;1.50;99.90;;;;;;4885088;29;20940;-72
2023/02/10 01:20:09;;;;;;;14.37;10.00;;;1.50;99.90;;;;;;4884116;29;20184;-71
2023/02/10 01:22:36;;;;;;;18.43;12.07;;;1.30;99.90;;;;;;4884190;29;20205;-72
2023/02/10 01:25:02;;;;;;;18.40;11.97;;;1.20;99.90;;;;;;4888089;29;20416;-72
2023/02/10 01:27:28;;;;;;;14.67;10.00;;;1.20;99.90;;;;;;4895458;29;20436;-72
2023/02/10 01:29:54;;;;;;;18.53;12.27;;;1.10;99.90;;;;;;4882713;29;21116;-72
2023/02/10 01:32:19;;;;;;;17.50;10.87;;;1.00;99.90;;;;;;4890775;29;20180;-72
2023/02/10 01:34:45;;;;;;;17.00;10.87;;;1.00;99.90;;;;;;4878988;29;20265;-71
2023/02/10 01:37:10;;;;;;;15.57;10.17;;;1.00;99.90;;;;;;4887495;29;20196;-72
2023/02/10 01:39:36;;;;;;;17.47;10.20;;;1.00;99.90;;;;;;4881244;29;20188;-72
2023/02/10 01:42:02;;;;;;;15.67;10.33;;;1.00;99.90;;;;;;4884662;29;20204;-71
2023/02/10 01:44:27;;;;;;;17.33;11.13;;;0.90;99.90;;;;;;4888379;29;20181;-72
2023/02/10 01:46:54;;;;;;;22.17;11.90;;;0.90;99.90;;;;;;4883520;29;20528;-71
2023/02/10 01:49:27;;;;;;;17.13;10.50;;;0.90;99.90;;;;;;4891018;29;20180;-72
2023/02/10 01:52:15;;;;;;;15.87;9.57;;;0.70;99.90;;;;;;4879487;29;20424;-72
2023/02/10 01:54:52;;;;;;;18.00;11.33;;;0.80;99.90;;;;;;4885059;29;20425;-71
2023/02/10 01:57:18;;;;;;;17.13;11.90;;;0.80;99.90;;;;;;4881589;29;20440;-72
2023/02/10 01:59:44;;;;;;;18.40;9.93;;;0.80;99.90;;;;;;4893873;29;20952;-72
2023/02/10 02:02:12;;;;;;;15.53;9.97;;;0.80;99.90;;;;;;4886643;29;20468;-72
2023/02/10 02:04:48;;;;;;;12.00;10.00;;;0.80;99.90;;;;;;4882975;29;20435;-71
2023/02/10 02:07:15;;;;;;;16.67;12.13;;;0.90;99.90;;;;;;4888837;29;20495;-70
2023/02/10 02:09:41;;;;;;;20.10;11.57;;;0.80;99.90;;;;;;4880744;29;20425;-73
2023/02/10 02:12:32;;;;;;;16.33;11.10;;;0.70;99.90;;;;;;4883784;29;20436;-71
2023/02/10 02:15:30;;;;;;;22.37;11.50;;;0.70;99.90;;;;;;4880956;29;20177;-71
2023/02/10 02:18:08;;;;;;;20.00;12.00;;;0.70;99.90;;;;;;4885970;29;20456;-71
2023/02/10 02:21:07;;;;;;;21.80;9.87;;;0.70;99.90;;;;;;4932955;23;20909;-70
2023/02/10 02:23:44;;;;;;;23.57;11.23;;;0.80;99.90;;;;;;4867504;29;20474;-69
2023/02/10 02:26:32;;;;;;;15.30;10.80;;;0.70;99.90;;;;;;4859912;29;20800;-69
2023/02/10 02:29:36;;;;;;;22.93;13.67;;;0.70;99.90;;;;;;4880316;29;20826;-69
2023/02/10 02:32:09;;;;;;;19.77;12.10;;;0.80;99.90;;;;;;4872266;29;20416;-69
2023/02/10 02:35:02;;;;;;;24.90;12.87;;;0.70;99.90;;;;;;4873714;29;20421;-70
2023/02/10 02:37:41;;;;;;;21.70;12.70;;;0.60;99.90;;;;;;4873450;29;20516;-70
2023/02/10 02:40:08;;;;;;;23.20;12.67;;;0.60;99.90;;;;;;4875697;29;20441;-70
2023/02/10 02:42:34;;;;;;;23.90;15.47;;;0.50;99.90;;;;;;4875926;29;20517;-70
2023/02/10 02:45:17;;;;;;;23.80;15.10;;;0.40;99.90;;;;;;4856203;29;20469;-69
2023/02/10 02:48:12;;;;;;;26.73;13.90;;;0.60;99.90;;;;;;4876032;29;20959;-69
2023/02/10 02:51:03;;;;;;;20.00;13.13;;;0.80;99.90;;;;;;4873050;29;20862;-70
2023/02/10 02:53:37;;;;;;;16.27;12.70;;;0.70;99.90;;;;;;4874247;29;20425;-70
2023/02/10 02:56:21;;;;;;;23.30;12.60;;;0.70;99.90;;;;;;4872797;29;20533;-69
2023/02/10 02:58:59;;;;;;;16.80;10.80;;;0.80;99.90;;;;;;4873767;29;20580;-70
2023/02/10 03:01:49;;;;;;;15.80;11.87;;;0.80;99.90;;;;;;4856631;29;20498;-70
2023/02/10 03:04:17;;;;;;;20.47;13.60;;;0.80;99.90;;;;;;4872260;29;20417;-69
2023/02/10 03:06:43;;;;;;;20.80;11.50;;;0.80;99.90;;;;;;4874026;29;20921;-69
2023/02/10 03:09:09;;;;;;;21.50;13.43;;;0.80;99.90;;;;;;4869292;29;20743;-69
2023/02/10 03:11:35;;;;;;;27.53;15.00;;;0.80;99.90;;;;;;4840188;29;20449;-69
2023/02/10 03:14:00;;;;;;;19.90;11.43;;;0.90;99.90;;;;;;4867929;29;20425;-70
2023/02/10 03:16:26;;;;;;;14.00;11.20;;;0.90;99.90;;;;;;4875712;29;20181;-70
2023/02/10 03:18:52;;;;;;;22.00;11.97;;;0.80;99.90;;;;;;4848834;29;20190;-69
2023/02/10 03:21:17;;;;;;;28.93;13.53;;;0.90;99.90;;;;;;4868684;29;20621;-69
2023/02/10 03:23:43;;;;;;;20.67;11.93;;;1.00;99.90;;;;;;4876772;29;20208;-69
2023/02/10 03:26:09;;;;;;;21.00;12.03;;;0.90;99.90;;;;;;4873225;29;20265;-69
2023/02/10 03:28:34;;;;;;;19.87;11.20;;;0.90;99.90;;;;;;4874899;29;20322;-70
2023/02/10 03:31:03;;;;;;;19.40;12.20;;;1.00;99.90;;;;;;4877132;29;20284;-70
2023/02/10 03:33:29;;;;;;;25.97;14.30;;;1.00;99.90;;;;;;4878182;29;20421;-70
2023/02/10 03:35:54;;;;;;;19.17;12.30;;;1.10;99.90;;;;;;4866741;29;20526;-70
2023/02/10 03:38:20;;;;;;;21.47;11.90;;;1.10;99.90;;;;;;4865186;29;20192;-70
2023/02/10 03:40:50;;;;;;;23.90;15.07;;;1.10;99.90;;;;;;4871358;29;20204;-69
2023/02/10 03:43:16;;;;;;;22.10;14.43;;;1.10;99.90;;;;;;4879142;29;20475;-70
2023/02/10 03:45:41;;;;;;;25.93;14.13;;;1.20;99.90;;;;;;4877174;29;20434;-70
2023/02/10 03:48:07;;;;;;;24.70;14.10;;;1.20;99.90;;;;;;4877749;29;20181;-71
2023/02/10 03:50:33;;;;;;;23.60;12.83;;;1.20;99.90;;;;;;4878239;29;20200;-70
2023/02/10 03:52:58;;;;;;;17.33;14.47;;;1.30;99.90;;;;;;4866490;29;20216;-68
2023/02/10 03:55:24;;;;;;;22.83;13.43;;;1.30;99.90;;;;;;4846281;29;20661;-69
2023/02/10 03:57:49;;;;;;;26.83;15.30;;;1.30;99.90;;;;;;4872933;29;20181;-71
2023/02/10 04:00:15;;;;;;;21.97;12.10;;;1.30;99.90;;;;;;4874053;29;20201;-69
2023/02/10 04:02:41;;;;;;;23.77;14.67;;;1.30;99.90;;;;;;4876884;29;20205;-70
2023/02/10 04:05:07;;;;;;;20.37;13.53;;;1.40;99.90;;;;;;4875311;29;20421;-70
2023/02/10 04:07:33;;;;;;;23.63;13.43;;;1.40;99.90;;;;;;4877461;29;20797;-70
2023/02/10 04:09:58;;;;;;;22.93;14.67;;;1.40;99.90;;;;;;4870906;29;20235;-69
2023/02/10 04:12:24;;;;;;;22.07;14.60;;;1.40;99.90;;;;;;4850790;29;20197;-69
2023/02/10 04:14:49;;;;;;;22.37;12.80;;;1.40;99.90;;;;;;4842529;29;20252;-69
2023/02/10 04:17:15;;;;;;;27.20;13.97;;;1.50;99.90;;;;;;4872424;29;20204;-69
2023/02/10 04:19:40;;;;;;;26.90;14.33;;;1.50;99.90;;;;;;4875304;29;20266;-69
2023/02/10 04:22:06;;;;;;;35.10;17.00;;;1.50;99.90;;;;;;4875728;29;20547;-69
2023/02/10 04:24:32;;;;;;;34.50;18.73;;;1.50;99.90;;;;;;4877919;29;20264;-69
2023/02/10 04:26:57;;;;;;;28.40;16.30;;;1.50;99.90;;;;;;4874982;29;20186;-70
2023/02/10 04:29:23;;;;;;;31.60;16.20;;;1.50;99.90;;;;;;4880452;29;20196;-71
2023/02/10 04:31:49;;;;;;;26.67;15.50;;;1.50;99.90;;;;;;4864029;29;20189;-69
2023/02/10 04:34:14;;;;;;;30.73;17.67;;;1.60;99.90;;;;;;4870533;29;20232;-70
2023/02/10 04:36:40;;;;;;;24.33;15.70;;;1.60;99.90;;;;;;4879344;29;20919;-70
2023/02/10 04:39:06;;;;;;;24.37;14.00;;;1.60;99.90;;;;;;4875820;29;20247;-69
2023/02/10 04:41:31;;;;;;;33.00;15.67;;;1.60;99.90;;;;;;4876806;29;20708;-70
2023/02/10 04:43:57;;;;;;;31.87;16.60;;;1.60;99.90;;;;;;4875071;29;20181;-70
2023/02/10 04:46:23;;;;;;;22.60;14.37;;;1.60;99.90;;;;;;4877539;29;20241;-70
2023/02/10 04:48:48;;;;;;;32.97;16.97;;;1.60;99.90;;;;;;4850985;29;20574;-69
2023/02/10 04:51:14;;;;;;;26.43;16.80;;;1.60;99.90;;;;;;4865337;29;20722;-70
2023/02/10 04:53:43;;;;;;;23.03;15.60;;;1.70;99.90;;;;;;4876332;29;20532;-69
2023/02/10 04:56:09;;;;;;;24.57;16.97;;;1.70;99.90;;;;;;4870399;29;20181;-69
2023/02/10 04:58:35;;;;;;;29.40;17.53;;;1.70;99.90;;;;;;4850576;29;20458;-70
2023/02/10 05:01:00;;;;;;;31.37;17.23;;;1.70;99.90;;;;;;4872064;29;20530;-70
2023/02/10 05:03:26;;;;;;;23.50;15.30;;;1.70;99.90;;;;;;4842663;29;20217;-68
2023/02/10 05:05:52;;;;;;;28.87;16.50;;;1.70;99.90;;;;;;4850885;29;20555;-69
2023/02/10 05:08:19;;;;;;;26.93;14.93;;;1.70;99.90;;;;;;4874058;29;20177;-70
2023/02/10 05:10:47;;;;;;;26.00;15.47;;;1.70;99.90;;;;;;4877492;29;20672;-70
2023/02/10 05:13:13;;;;;;;30.27;16.63;;;1.70;99.90;;;;;;4869622;29;20426;-69
2023/02/10 05:15:38;;;;;;;28.63;18.60;;;1.70;99.90;;;;;;4875682;29;20437;-70
2023/02/10 05:18:04;;;;;;;27.63;16.37;;;1.70;99.90;;;;;;4872666;29;20426;-70
2023/02/10 05:20:30;;;;;;;30.10;15.83;;;1.70;99.90;;;;;;4873487;29;20692;-70
2023/02/10 05:22:55;;;;;;;31.07;16.87;;;1.80;99.90;;;;;;4854288;29;20241;-69
2023/02/10 05:25:21;;;;;;;31.90;16.10;;;1.70;99.90;;;;;;4853564;29;20182;-70
2023/02/10 05:27:47;;;;;;;32.80;16.70;;;1.80;99.90;;;;;;4876801;29;20192;-69
2023/02/10 05:30:15;;;;;;;26.87;17.77;;;1.80;99.90;;;;;;4875307;29;20664;-69
2023/02/10 05:32:42;;;;;;;28.73;16.63;;;1.70;99.90;;;;;;4874322;29;20189;-69
2023/02/10 05:35:08;;;;;;;35.73;17.47;;;1.70;99.90;;;;;;4862347;29;20439;-69
2023/02/10 05:37:34;;;;;;;29.47;16.30;;;1.60;99.90;;;;;;4849231;29;20454;-70
2023/02/10 05:39:59;;;;;;;37.97;19.03;;;1.50;99.90;;;;;;4873390;29;20776;-70
2023/02/10 05:42:25;;;;;;;28.10;17.80;;;1.50;99.90;;;;;;4875959;29;20580;-70
2023/02/10 05:44:50;;;;;;;32.47;16.53;;;1.40;99.90;;;;;;4874186;29;20181;-70
2023/02/10 05:47:16;;;;;;;31.43;17.17;;;1.40;99.90;;;;;;4876761;29;20187;-70
2023/02/10 05:49:41;;;;;;;34.37;18.03;;;1.30;99.90;;;;;;4847497;29;20210;-70
2023/02/10 05:52:07;;;;;;;25.70;15.93;;;1.30;99.90;;;;;;4868127;29;20184;-70
2023/02/10 05:54:33;;;;;;;36.27;18.53;;;1.20;99.90;;;;;;4877633;29;20193;-69
2023/02/10 05:56:59;;;;;;;39.60;17.13;;;1.20;99.90;;;;;;4850210;29;20452;-70
2023/02/10 05:59:24;;;;;;;35.90;17.50;;;1.20;99.90;;;;;;4866957;29;20208;-69
2023/02/10 06:01:50;;;;;;;37.23;20.00;;;1.20;99.90;;;;;;4873152;29;20181;-69
2023/02/10 06:04:16;;;;;;;28.77;18.27;;;1.10;99.90;;;;;;4875829;29;20181;-70
2023/02/10 06:06:41;;;;;;;42.93;22.30;;;1.10;99.90;;;;;;4869886;29;21017;-70
2023/02/10 06:09:07;;;;;;;34.57;18.67;;;1.10;99.90;;;;;;4837596;29;20210;-70
2023/02/10 06:11:33;;;;;;;33.17;17.77;;;1.10;99.90;;;;;;4854909;29;20192;-70
2023/02/10 06:13:59;;;;;;;34.30;21.40;;;1.10;99.90;;;;;;4867748;29;20229;-71
2023/02/10 06:16:25;;;;;;;37.83;20.43;;;1.10;99.90;;;;;;4877888;29;20425;-70
2023/02/10 06:18:50;;;;;;;45.60;20.90;;;1.00;99.90;;;;;;4868754;29;20220;-70
2023/02/10 06:21:16;;;;;;;42.37;18.43;;;1.10;99.90;;;;;;4874261;29;20437;-70
2023/02/10 06:23:42;;;;;;;40.40;18.90;;;1.10;99.90;;;;;;4869918;29;20323;-70
2023/02/10 06:26:08;;;;;;;27.87;17.27;;;1.10;99.90;;;;;;4875092;29;20188;-70
2023/02/10 06:28:34;;;;;;;44.47;21.20;;;1.10;99.90;;;;;;4849778;29;20429;-70
2023/02/10 06:30:59;;;;;;;40.93;20.07;;;1.10;99.90;;;;;;4846138;29;20469;-69
2023/02/10 06:33:25;;;;;;;38.20;20.57;;;1.10;99.90;;;;;;4867716;29;20240;-70
2023/02/10 06:35:51;;;;;;;34.77;19.30;;;1.10;99.90;;;;;;4870206;29;20185;-69
2023/02/10 06:38:17;;;;;;;33.70;17.87;;;1.10;99.90;;;;;;4872832;29;20288;-69
2023/02/10 06:40:42;;;;;;;34.30;18.87;;;1.00;99.90;;;;;;4871793;29;20961;-69
2023/02/10 06:43:08;;;;;;;35.77;20.27;;;1.00;99.90;;;;;;4877801;29;20476;-69
2023/02/10 06:45:34;;;;;;;33.93;19.20;;;1.00;99.90;;;;;;4871894;29;20185;-69
2023/02/10 06:48:01;;;;;;;35.10;16.80;;;1.10;99.90;;;;;;4869299;29;20442;-70
2023/02/10 06:50:26;;;;;;;36.53;20.97;;;1.10;99.90;;;;;;4867409;29;20462;-70
2023/02/10 06:52:52;;;;;;;41.27;20.67;;;1.20;99.90;;;;;;4877776;29;20466;-70
2023/02/10 06:55:18;;;;;;;31.20;19.97;;;1.30;99.90;;;;;;4874156;29;20185;-70
2023/02/10 06:57:44;;;;;;;34.27;17.77;;;1.20;99.90;;;;;;4856755;29;20195;-70
2023/02/10 07:00:12;;;;;;;30.90;19.60;;;1.30;99.90;;;;;;4845775;29;20245;-70
2023/02/10 07:02:38;;;;;;;30.90;19.00;;;1.30;99.90;;;;;;4849485;29;20733;-70
2023/02/10 07:05:07;;;;;;;30.23;19.20;;;1.40;99.90;;;;;;4846206;29;20454;-69
2023/02/10 07:07:32;;;;;;;36.97;18.90;;;1.50;99.90;;;;;;4860454;29;20438;-70
2023/02/10 07:09:58;;;;;;;33.90;18.87;;;1.50;99.90;;;;;;4867794;29;20457;-70
2023/02/10 07:12:26;;;;;;;35.93;18.67;;;1.50;99.90;;;;;;4847771;29;20562;-69
2023/02/10 07:14:53;;;;;;;30.93;17.70;;;1.60;99.90;;;;;;4842575;29;20550;-70
2023/02/10 07:17:19;;;;;;;32.73;19.10;;;1.60;99.90;;;;;;4860865;29;20850;-69
2023/02/10 07:19:45;;;;;;;30.77;18.50;;;1.70;99.90;;;;;;4869848;29;20536;-71
2023/02/10 07:22:11;;;;;;;33.37;18.13;;;1.70;99.90;;;;;;4880689;29;21067;-69
2023/02/10 07:24:36;;;;;;;33.97;19.30;;;1.80;99.90;;;;;;4873434;29;20177;-69
2023/02/10 07:27:02;;;;;;;39.73;18.97;;;1.80;99.90;;;;;;4880240;29;20201;-69
2023/02/10 07:29:28;;;;;;;34.47;16.70;;;1.90;99.90;;;;;;4879332;29;20256;-71
2023/02/10 07:31:54;;;;;;;36.37;18.57;;;2.00;99.90;;;;;;4870797;29;20423;-69
2023/02/10 07:34:20;;;;;;;34.70;15.97;;;2.00;99.90;;;;;;4856401;29;20377;-69
2023/02/10 07:36:50;;;;;;;29.30;18.53;;;2.10;99.90;;;;;;4871620;29;20453;-70
2023/02/10 07:39:15;;;;;;;27.90;16.10;;;2.20;99.90;;;;;;4873063;29;20453;-70
2023/02/10 07:41:41;;;;;;;29.40;16.70;;;2.20;99.90;;;;;;4872253;29;20425;-69
2023/02/10 07:44:06;;;;;;;33.50;17.50;;;2.20;99.90;;;;;;4876021;29;20181;-69
2023/02/10 07:46:32;;;;;;;23.33;16.00;;;2.30;99.90;;;;;;4878834;29;20180;-70
2023/02/10 07:48:58;;;;;;;32.13;17.43;;;2.30;99.90;;;;;;4875554;29;20220;-70
2023/02/10 07:51:23;;;;;;;30.53;16.47;;;2.30;99.90;;;;;;4868064;29;20188;-69
2023/02/10 07:53:49;;;;;;;26.30;14.30;;;2.30;99.90;;;;;;4870731;29;20185;-69
2023/02/10 07:56:14;;;;;;;25.70;15.43;;;2.40;99.90;;;;;;4872887;29;20206;-70
2023/02/10 07:58:40;;;;;;;29.60;15.40;;;2.40;99.90;;;;;;4872014;29;20185;-70
2023/02/10 08:01:10;;;;;;;28.10;16.33;;;2.40;99.90;;;;;;4872720;29;20202;-69
2023/02/10 08:03:36;;;;;;;34.47;15.90;;;2.40;99.90;;;;;;4879899;29;20263;-69
2023/02/10 08:06:02;;;;;;;29.97;17.80;;;2.50;99.90;;;;;;4871918;29;20423;-69
2023/02/10 08:08:27;;;;;;;27.47;16.00;;;2.50;99.90;;;;;;4857946;29;20661;-69
2023/02/10 08:10:53;;;;;;;28.50;16.10;;;2.50;99.90;;;;;;4878251;29;20207;-70
2023/02/10 08:13:18;;;;;;;36.43;18.47;;;2.70;99.90;;;;;;4874530;29;20185;-70
2023/02/10 08:15:44;;;;;;;27.63;17.20;;;2.90;99.90;;;;;;4871986;29;20272;-70
2023/02/10 08:18:10;;;;;;;30.40;18.10;;;3.00;99.90;;;;;;4874285;29;20674;-69
2023/02/10 08:20:36;;;;;;;27.90;14.90;;;3.10;99.90;;;;;;4877251;29;20227;-70
2023/02/10 08:23:01;;;;;;;29.93;16.20;;;3.40;99.90;;;;;;4874630;29;20498;-70
2023/02/10 08:25:27;;;;;;;31.93;17.83;;;3.50;99.90;;;;;;4864486;29;20312;-70
2023/02/10 08:27:53;;;;;;;26.67;16.87;;;3.40;99.90;;;;;;4907545;23;20258;-67
2023/02/10 08:30:19;;;;;;;24.87;17.13;;;3.40;99.90;;;;;;4891209;29;20176;-66
2023/02/10 08:32:45;;;;;;;28.50;16.37;;;3.80;99.90;;;;;;4896838;29;20428;-66
2023/02/10 08:35:11;;;;;;;36.73;16.50;;;3.80;99.90;;;;;;4893056;29;20493;-65
2023/02/10 08:37:37;;;;;;;26.20;14.63;;;3.70;99.90;;;;;;4889095;29;20201;-66
2023/02/10 08:40:05;;;;;;;31.30;16.97;;;3.60;99.90;;;;;;4889300;29;20421;-66
2023/02/10 08:42:31;;;;;;;27.87;14.90;;;3.60;99.90;;;;;;4871762;29;20684;-66
2023/02/10 08:44:57;;;;;;;34.07;15.60;;;3.80;99.90;;;;;;4855182;29;20435;-66
2023/02/10 08:47:23;;;;;;;29.63;14.70;;;3.80;99.90;;;;;;4858864;29;20470;-66
2023/02/10 08:49:48;;;;;;;34.63;16.50;;;3.70;99.90;;;;;;4872973;29;20604;-66
2023/02/10 08:52:15;;;;;;;25.70;17.50;;;3.70;99.90;;;;;;4886373;29;20511;-67
2023/02/10 08:54:41;;;;;;;28.03;16.73;;;4.00;99.90;;;;;;4880620;29;20583;-67
2023/02/10 08:57:07;;;;;;;29.50;15.63;;;4.40;99.90;;;;;;4879642;29;20493;-67
2023/02/10 08:59:33;;;;;;;29.40;15.90;;;4.20;99.90;;;;;;4886382;29;20807;-67
2023/02/10 09:01:58;;;;;;;30.47;17.47;;;4.20;99.90;;;;;;4890826;29;20370;-66
2023/02/10 09:04:24;;;;;;;30.53;15.83;;;4.50;99.90;;;;;;4884588;29;20719;-65
2023/02/10 09:06:50;;;;;;;24.67;15.10;;;4.50;99.90;;;;;;4888181;29;20686;-67
2023/02/10 09:09:26;;;;;;;32.63;17.10;;;4.40;99.90;;;;;;4886945;29;20249;-67
2023/02/10 09:11:53;;;;;;;28.80;16.33;;;4.20;99.90;;;;;;4888427;29;20439;-66
2023/02/10 09:14:19;;;;;;;31.73;16.93;;;4.20;99.90;;;;;;4887217;29;20533;-67
2023/02/10 09:16:44;;;;;;;27.10;15.53;;;4.20;99.90;;;;;;4888274;29;20428;-68
2023/02/10 09:19:10;;;;;;;39.70;19.60;;;4.20;99.90;;;;;;4861865;29;20177;-65
2023/02/10 09:21:36;;;;;;;35.03;16.93;;;4.40;99.90;;;;;;4856536;29;20581;-66
2023/02/10 09:24:01;;;;;;;33.53;19.53;;;4.20;99.90;;;;;;4871464;29;20200;-66
2023/02/10 09:26:27;;;;;;;30.23;17.60;;;4.10;99.90;;;;;;4886074;29;20759;-66
2023/02/10 09:28:52;;;;;;;27.00;16.97;;;4.20;99.90;;;;;;4880214;29;20203;-66
2023/02/10 09:31:18;;;;;;;36.27;17.20;;;4.30;99.90;;;;;;4885540;29;20181;-66
2023/02/10 09:33:44;;;;;;;30.00;17.00;;;4.20;99.90;;;;;;4874082;29;20184;-65
2023/02/10 09:36:15;;;;;;;32.60;17.80;;;4.20;99.90;;;;;;4879584;29;20180;-66
2023/02/10 09:38:41;;;;;;;34.27;16.90;;;4.30;99.90;;;;;;4883373;29;20512;-66
2023/02/10 09:41:12;;;;;;;29.13;17.23;;;4.40;99.90;;;;;;4863400;29;20560;-66
2023/02/10 09:43:52;;;;;;;37.17;17.17;;;4.60;99.90;;;;;;4851839;29;20473;-66
2023/02/10 09:46:40;;;;;;;33.93;17.47;;;4.70;99.90;;;;;;4881393;29;20947;-66
2023/02/10 09:49:26;;;;;;;32.27;18.20;;;4.70;99.90;;;;;;4883234;29;20420;-66
2023/02/10 09:52:07;;;;;;;32.10;18.23;;;4.60;99.90;;;;;;4872333;29;20841;-66
2023/02/10 09:54:34;;;;;;;38.40;18.87;;;4.30;99.90;;;;;;4889119;29;20413;-67
2023/02/10 09:57:05;;;;;;;33.83;18.70;;;4.40;99.90;;;;;;4884840;29;20933;-67
2023/02/10 09:59:35;;;;;;;34.73;16.60;;;4.80;99.90;;;;;;4884815;29;20441;-66
2023/02/10 10:02:13;;;;;;;35.83;18.20;;;4.90;99.90;;;;;;4864015;29;20484;-66
2023/02/10 10:04:39;;;;;;;36.40;17.60;;;5.00;99.90;;;;;;4885872;29;20448;-66
2023/02/10 10:07:23;;;;;;;30.80;17.80;;;4.70;99.90;;;;;;4886535;29;20592;-66
2023/02/10 10:10:12;;;;;;;32.70;17.80;;;4.70;99.90;;;;;;4874747;29;20427;-67
2023/02/10 10:12:38;;;;;;;39.90;17.03;;;4.50;99.90;;;;;;4885299;29;20456;-66
2023/02/10 10:15:11;;;;;;;39.77;18.10;;;4.70;99.90;;;;;;4888675;29;20421;-66
2023/02/10 10:18:00;;;;;;;27.20;15.27;;;5.00;99.90;;;;;;4881206;29;20889;-66
2023/02/10 10:20:38;;;;;;;33.13;17.33;;;5.00;99.90;;;;;;4853150;29;20494;-66
2023/02/10 10:23:19;;;;;;;30.63;18.37;;;5.10;99.90;;;;;;4853695;29;20493;-66
2023/02/10 10:26:20;;;;;;;29.03;17.60;;;4.90;99.90;;;;;;4872663;29;20482;-67
2023/02/10 10:29:07;;;;;;;26.57;16.17;;;5.30;99.90;;;;;;4852674;29;20515;-65
2023/02/10 10:31:37;;;;;;;28.93;15.33;;;5.20;99.90;;;;;;4886319;29;20417;-65
2023/02/10 10:34:14;;;;;;;30.67;17.53;;;4.90;99.90;;;;;;4892629;29;20862;-66
2023/02/10 10:36:49;;;;;;;34.37;17.60;;;5.00;99.90;;;;;;4881127;29;20431;-65
2023/02/10 10:39:33;;;;;;;22.30;14.90;;;5.00;99.90;;;;;;4891322;29;20483;-66
2023/02/10 10:42:29;;;;;;;34.07;19.50;;;5.10;99.90;;;;;;4862500;29;20438;-66
2023/02/10 10:45:02;;;;;;;26.10;15.87;;;5.10;99.90;;;;;;4875107;29;20460;-65
2023/02/10 10:47:52;;;;;;;25.40;16.43;;;5.20;99.90;;;;;;4888107;29;20964;-65
2023/02/10 10:50:21;;;;;;;25.70;13.50;;;5.20;99.90;;;;;;4890476;29;20404;-66
2023/02/10 10:52:52;;;;;;;29.10;14.60;;;5.20;99.90;;;;;;4877286;29;20425;-65
2023/02/10 10:55:24;;;;;;;33.93;15.57;;;5.20;99.90;;;;;;4889359;29;20420;-65
2023/02/10 10:57:52;;;;;;;34.03;17.53;;;5.10;99.90;;;;;;4890957;29;20447;-65
2023/02/10 11:00:17;;;;;;;26.50;16.70;;;5.20;99.90;;;;;;4895861;29;20416;-65
2023/02/10 11:03:02;;;;;;;30.60;17.80;;;5.30;99.90;;;;;;4874272;29;20456;-66
2023/02/10 11:05:38;;;;;;;31.40;16.17;;;5.60;99.90;;;;;;4891645;29;20195;-65
2023/02/10 11:08:05;;;;;;;23.20;15.00;;;5.90;99.90;;;;;;4886389;29;20437;-65
2023/02/10 11:10:38;;;;;;;29.57;15.83;;;5.80;99.90;;;;;;4887351;29;20404;-65
2023/02/10 11:13:05;;;;;;;36.03;15.83;;;5.50;99.90;;;;;;4890369;29;20480;-65
2023/02/10 11:15:33;;;;;;;30.50;15.63;;;5.70;99.90;;;;;;4888481;29;20448;-65
2023/02/10 11:18:01;;;;;;;29.93;15.87;;;5.50;99.90;;;;;;4887081;29;20609;-65
2023/02/10 11:20:32;;;;;;;28.07;14.13;;;5.50;99.90;;;;;;4893282;29;20524;-65
2023/02/10 11:23:10;;;;;;;26.63;14.73;;;5.30;99.90;;;;;;4887176;29;20481;-65
2023/02/10 11:25:36;;;;;;;25.53;15.20;;;5.30;99.90;;;;;;4894099;29;20405;-65
2023/02/10 11:28:05;;;;;;;28.20;14.50;;;5.30;99.90;;;;;;4880750;29;20839;-66
2023/02/10 11:30:35;;;;;;;31.63;15.23;;;5.30;99.90;;;;;;4881404;29;20423;-65
2023/02/10 11:33:02;;;;;;;29.00;15.73;;;5.40;99.90;;;;;;4886542;29;20861;-67
2023/02/10 11:35:31;;;;;;;23.33;13.67;;;5.30;99.90;;;;;;4881229;29;20418;-65
2023/02/10 11:38:03;;;;;;;26.20;15.00;;;5.30;99.90;;;;;;4891316;29;20445;-66
2023/02/10 11:40:46;;;;;;;31.80;15.73;;;5.30;99.90;;;;;;4888584;29;20768;-66
2023/02/10 11:43:15;;;;;;;24.10;14.47;;;5.50;99.90;;;;;;4889182;29;20822;-66
2023/02/10 11:45:55;;;;;;;31.77;14.67;;;5.60;99.90;;;;;;4878441;29;20487;-66
2023/02/10 11:48:23;;;;;;;23.20;15.60;;;5.50;99.90;;;;;;4854248;29;20465;-66
2023/02/10 11:51:02;;;;;;;35.10;15.57;;;5.70;99.90;;;;;;4873044;29;20448;-64
2023/02/10 11:53:31;;;;;;;24.73;14.23;;;5.70;99.90;;;;;;4887565;29;20409;-66
2023/02/10 11:55:59;;;;;;;25.70;15.63;;;5.80;99.90;;;;;;4890131;29;20419;-66
2023/02/10 11:59:03;;;;;;;29.23;15.03;;;5.90;99.90;;;;;;4889319;29;20416;-65
2023/02/10 12:01:40;;;;;;;31.33;17.40;;;5.80;99.90;;;;;;4888720;29;20416;-66
2023/02/10 12:04:17;;;;;;;26.67;14.67;;;5.90;99.90;;;;;;4871566;29;20464;-65
2023/02/10 12:06:58;;;;;;;28.60;17.13;;;5.80;99.90;;;;;;4885495;29;20461;-66
2023/02/10 12:09:37;;;;;;;27.93;15.77;;;5.80;99.90;;;;;;4887596;29;20790;-66
2023/02/10 12:12:31;;;;;;;28.33;14.90;;;5.90;99.90;;;;;;4890807;29;20417;-66
2023/02/10 12:15:01;;;;;;;25.67;15.57;;;5.90;99.90;;;;;;4889289;29;20767;-66
2023/02/10 12:17:46;;;;;;;30.20;16.00;;;5.90;99.90;;;;;;4888673;29;20470;-66
2023/02/10 12:20:11;;;;;;;26.60;14.17;;;6.00;99.90;;;;;;4868415;29;20449;-65
2023/02/10 12:22:58;;;;;;;26.67;14.73;;;6.00;99.90;;;;;;4879334;29;20509;-67
2023/02/10 12:25:50;;;;;;;27.27;17.33;;;6.10;99.90;;;;;;4888122;29;20199;-69
2023/02/10 12:28:34;;;;;;;27.20;14.40;;;6.10;99.90;;;;;;4889852;29;20448;-69
2023/02/10 12:31:26;;;;;;;19.43;13.20;;;6.20;99.90;;;;;;4884757;29;20886;-71
2023/02/10 12:34:21;;;;;;;27.30;15.40;;;6.20;99.90;;;;;;4878215;29;20422;-69
2023/02/10 12:37:09;;;;;;;34.00;17.27;;;6.30;99.90;;;;;;4880869;29;20444;-66
2023/02/10 12:39:53;;;;;;;34.77;15.00;;;6.40;99.90;;;;;;4871060;29;20927;-66
2023/02/10 12:42:24;;;;;;;28.00;16.00;;;6.30;99.90;;;;;;4886713;29;20468;-66
2023/02/10 12:45:05;;;;;;;26.60;13.90;;;6.20;99.90;;;;;;4886118;29;20452;-66
2023/02/10 12:47:47;;;;;;;24.53;16.13;;;6.20;99.90;;;;;;4895071;29;21033;-66
2023/02/10 12:50:25;;;;;;;25.47;16.20;;;6.20;99.90;;;;;;4875899;29;20441;-66
2023/02/10 12:53:16;;;;;;;25.60;14.73;;;6.10;99.90;;;;;;4867509;29;20445;-65